Time;durP1;ratioP1;P1;durP2;ratioP2;P2;SDS_P1;SDS_P2;PMS_P1;PMS_P2;Temp;Humidity;BMP_temperature;BMP_pressure;BME280_temperature;BME280_humidity;BME280_pressure;Samples;Min_cycle;Max_cycle;Signal;HPM_P1;HPM_P2
2024/01/18 05:21:27;;;;;;;;;;;;;;;9.54;85.79;94709.00;4238753;27;10257;-69
2024/01/18 05:23:30;;;;;;;;;;;;;;;9.83;85.09;94707.09;4248738;27;5598;-69
2024/01/18 05:25:34;;;;;;;;;;;;;;;10.06;84.46;94715.91;4245385;27;5593;-68
2024/01/18 05:27:37;;;;;;;;;;;;;;;10.24;83.44;94713.06;4233059;27;5640;-70
2024/01/18 05:29:40;;;;;;;;;;;;;;;10.40;82.87;94706.16;4244076;27;5649;-70
2024/01/18 05:31:43;;;;;;;;;;;;;;;10.51;82.56;94699.97;4244522;27;5597;-70
2024/01/18 05:33:45;;;;;;;;;;;;;;;10.61;82.19;94707.25;4245338;27;5609;-70
2024/01/18 05:35:48;;;;;;;;;;;;;;;10.68;82.04;94705.22;4246546;27;5613;-69
2024/01/18 05:37:52;;;;;;;;;;;;;;;10.74;81.68;94697.09;4245312;27;5660;-69
2024/01/18 05:39:54;;;;;;;;;;;;;;;10.82;81.43;94697.75;4248065;27;5896;-70
2024/01/18 05:41:57;;;;;;;;;;;;;;;10.87;80.88;94709.16;4248013;27;5590;-70
2024/01/18 05:44:01;;;;;;;;;;;;;;;10.93;80.99;94710.84;4247824;27;5598;-69
2024/01/18 05:46:03;;;;;;;;;;;;;;;10.96;80.63;94691.84;4248049;27;5103;-69
2024/01/18 05:48:06;;;;;;;;;;;;;;;11.00;80.40;94687.66;4247942;27;5586;-70
2024/01/18 05:50:10;;;;;;;;;;;;;;;11.04;80.36;94698.53;4246356;27;5614;-69
2024/01/18 05:52:13;;;;;;;;;;;;;;;11.05;79.99;94697.50;4246977;27;5598;-70
2024/01/18 05:54:16;;;;;;;;;;;;;;;11.07;80.09;94696.19;4246031;27;5601;-70
2024/01/18 05:56:19;;;;;;;;;;;;;;;11.11;80.01;94704.47;4247694;27;7152;-69
2024/01/18 05:58:22;;;;;;;;;;;;;;;11.13;79.54;94709.50;4247887;27;5615;-70
2024/01/18 06:00:25;;;;;;;;;;;;;;;11.16;79.44;94703.69;4239257;27;5583;-69
2024/01/18 06:02:28;;;;;;;;;;;;;;;11.17;79.44;94705.28;4242876;27;5537;-69
2024/01/18 06:04:30;;;;;;;;;;;;;;;11.19;79.15;94713.78;4241238;27;5670;-69
2024/01/18 06:06:34;;;;;;;;;;;;;;;11.21;79.02;94706.38;4240982;27;5614;-70
2024/01/18 06:08:37;;;;;;;;;;;;;;;11.21;79.21;94701.94;4241065;27;5819;-69
2024/01/18 06:10:42;;;;;;;;;;;;;;;11.23;78.94;94707.75;4248886;27;5498;-69
2024/01/18 06:12:45;;;;;;;;;;;;;;;11.24;78.84;94708.56;4245002;27;5143;-69
2024/01/18 06:14:48;;;;;;;;;;;;;;;11.25;78.53;94705.66;4239675;27;6314;-69
2024/01/18 06:16:50;;;;;;;;;;;;;;;11.26;78.79;94709.09;4244873;27;5730;-69
2024/01/18 06:18:54;;;;;;;;;;;;;;;11.26;78.58;94701.97;4245947;27;5778;-69
2024/01/18 06:20:57;;;;;;;;;;;;;;;11.27;78.29;94710.69;4243522;27;5731;-69
2024/01/18 06:23:00;;;;;;;;;;;;;;;11.28;78.51;94707.81;4234325;27;5494;-69
2024/01/18 06:25:04;;;;;;;;;;;;;;;11.30;78.40;94705.72;4229425;27;5748;-69
2024/01/18 06:27:08;;;;;;;;;;;;;;;11.31;78.29;94701.22;4233021;27;5669;-70
2024/01/18 06:29:11;;;;;;;;;;;;;;;11.32;78.16;94700.16;4234939;27;5663;-69
2024/01/18 06:31:14;;;;;;;;;;;;;;;11.34;77.89;94711.31;4232354;27;5745;-70
2024/01/18 06:33:18;;;;;;;;;;;;;;;11.34;78.21;94706.03;4223112;28;5791;-70
2024/01/18 06:35:22;;;;;;;;;;;;;;;11.35;77.80;94708.44;4219082;28;5756;-70
2024/01/18 06:37:25;;;;;;;;;;;;;;;11.36;77.69;94703.94;4219794;28;5799;-70
2024/01/18 06:39:28;;;;;;;;;;;;;;;11.37;77.98;94716.91;4226265;28;5712;-70
2024/01/18 06:41:31;;;;;;;;;;;;;;;11.38;77.63;94709.78;4219506;28;5739;-70
2024/01/18 06:43:36;;;;;;;;;;;;;;;11.39;77.68;94714.00;4221755;28;5699;-71
2024/01/18 06:45:39;;;;;;;;;;;;;;;11.38;77.48;94702.63;4221238;28;5680;-69
2024/01/18 06:47:42;;;;;;;;;;;;;;;11.41;77.36;94709.25;4229988;28;5709;-70
2024/01/18 06:49:45;;;;;;;;;;;;;;;11.41;77.51;94711.91;4226099;28;5821;-70
2024/01/18 06:51:48;;;;;;;;;;;;;;;11.43;77.18;94711.66;4227177;28;5594;-70
2024/01/18 06:53:51;;;;;;;;;;;;;;;11.43;77.25;94712.44;4236042;28;5710;-71
2024/01/18 06:55:55;;;;;;;;;;;;;;;11.45;77.42;94710.38;4222251;28;5771;-69
2024/01/18 06:58:02;;;;;;;;;;;;;;;11.45;77.25;94715.69;4227168;28;5664;-69
2024/01/18 07:00:08;;;;;;;;;;;;;;;11.46;76.94;94711.19;4235642;28;5594;-70
2024/01/18 07:02:10;;;;;;;;;;;;;;;11.47;77.16;94705.63;4231792;28;5731;-70
2024/01/18 07:04:13;;;;;;;;;;;;;;;11.48;76.94;94717.03;4219980;28;5848;-70
2024/01/18 07:06:16;;;;;;;;;;;;;;;11.48;77.05;94701.94;4234577;28;5721;-70
2024/01/18 07:08:19;;;;;;;;;;;;;;;11.48;77.01;94707.22;4225932;28;5888;-71
2024/01/18 07:10:22;;;;;;;;;;;;;;;11.50;76.97;94699.03;4225668;28;6005;-71
2024/01/18 07:12:25;;;;;;;;;;;;;;;11.48;76.62;94696.66;4218413;28;5677;-71
2024/01/18 07:14:27;;;;;;;;;;;;;;;11.51;76.74;94690.06;4228180;28;5619;-71
2024/01/18 07:16:37;;;;;;;;;;;;;;;11.50;76.71;94689.25;4230663;28;5601;-70
2024/01/18 07:18:40;;;;;;;;;;;;;;;11.50;76.63;94699.03;4227303;28;5623;-70
2024/01/18 07:20:43;;;;;;;;;;;;;;;11.50;76.32;94699.84;4227271;28;6293;-70
2024/01/18 07:22:46;;;;;;;;;;;;;;;11.51;76.67;94705.94;4230688;28;5606;-70
2024/01/18 07:24:49;;;;;;;;;;;;;;;11.53;76.52;94696.69;4225871;28;5752;-70
2024/01/18 07:26:52;;;;;;;;;;;;;;;11.53;76.11;94696.69;4212367;28;5649;-70
2024/01/18 07:28:55;;;;;;;;;;;;;;;11.53;76.08;94709.13;4229379;28;5582;-70
2024/01/18 07:31:01;;;;;;;;;;;;;;;11.53;76.36;94709.91;4221839;28;5681;-73
2024/01/18 07:33:05;;;;;;;;;;;;;;;11.55;76.16;94702.56;4217158;27;5903;-73
2024/01/18 07:35:09;;;;;;;;;;;;;;;11.56;75.98;94709.44;4218980;27;5863;-73
2024/01/18 07:37:13;;;;;;;;;;;;;;;11.58;76.00;94711.84;4216818;27;5832;-71
2024/01/18 07:39:35;;;;;;;;;;;;;;;11.56;75.82;94712.09;4216713;27;5597;-73
2024/01/18 07:41:38;;;;;;;;;;;;;;;11.55;75.94;94713.13;4228867;28;5590;-72
2024/01/18 07:43:41;;;;;;;;;;;;;;;11.59;75.65;94729.31;4231522;28;6051;-80
2024/01/18 07:45:44;;;;;;;;;;;;;;;11.59;75.69;94730.09;4222892;28;5660;-76
2024/01/18 07:47:46;;;;;;;;;;;;;;;11.60;75.66;94734.34;4223037;28;5696;-76
2024/01/18 07:49:51;;;;;;;;;;;;;;;11.62;75.76;94736.75;4224623;28;5683;-74
2024/01/18 07:51:54;;;;;;;;;;;;;;;11.64;75.69;94740.72;4222072;28;5689;-75
2024/01/18 07:53:57;;;;;;;;;;;;;;;11.64;75.70;94743.38;4223144;27;5636;-72
2024/01/18 07:56:00;;;;;;;;;;;;;;;11.68;75.60;94732.31;4221126;27;5736;-71
2024/01/18 07:58:03;;;;;;;;;;;;;;;11.68;75.40;94746.34;4222192;27;5698;-69
2024/01/18 08:00:08;;;;;;;;;;;;;;;11.67;75.59;94736.81;4222076;27;5784;-68
2024/01/18 08:02:11;;;;;;;;;;;;;;;11.70;75.45;94748.72;4233881;28;6360;-67
2024/01/18 08:04:15;;;;;;;;;;;;;;;11.68;75.27;94741.06;4226657;28;5618;-69
2024/01/18 08:06:19;;;;;;;;;;;;;;;11.70;75.42;94735.50;4233783;28;5606;-69
2024/01/18 08:08:22;;;;;;;;;;;;;;;11.70;75.08;94751.38;4234801;28;5605;-68
2024/01/18 08:10:26;;;;;;;;;;;;;;;11.71;75.44;94745.84;4234515;28;5697;-68
2024/01/18 08:12:29;;;;;;;;;;;;;;;11.70;75.04;94746.09;4234223;28;5684;-71
2024/01/18 08:14:32;;;;;;;;;;;;;;;11.71;75.10;94747.69;4234645;28;6287;-70
2024/01/18 08:16:34;;;;;;;;;;;;;;;11.72;75.08;94741.34;4233381;28;5609;-70
2024/01/18 08:18:38;;;;;;;;;;;;;;;11.71;75.18;94737.91;4227973;28;5586;-72
2024/01/18 08:20:42;;;;;;;;;;;;;;;11.74;75.15;94737.38;4223412;28;5764;-72
2024/01/18 08:22:46;;;;;;;;;;;;;;;11.75;75.28;94743.47;4228521;28;5668;-73
2024/01/18 08:24:50;;;;;;;;;;;;;;;11.75;75.21;94735.53;4230026;28;5585;-72
2024/01/18 08:26:52;;;;;;;;;;;;;;;11.75;75.17;94738.97;4230955;28;5112;-72
2024/01/18 08:28:55;;;;;;;;;;;;;;;11.77;74.97;94736.09;4225085;28;8384;-72
2024/01/18 08:30:57;;;;;;;;;;;;;;;11.77;74.82;94739.53;4218615;28;5673;-72
2024/01/18 08:33:01;;;;;;;;;;;;;;;11.79;75.14;94741.94;4225173;28;5669;-72
2024/01/18 08:35:06;;;;;;;;;;;;;;;11.79;75.10;94734.00;4227872;28;5736;-72
2024/01/18 08:37:08;;;;;;;;;;;;;;;11.80;75.13;94738.28;4224097;28;5625;-72
2024/01/18 08:39:13;;;;;;;;;;;;;;;11.82;74.79;94749.41;4226298;28;5771;-72
2024/01/18 08:41:15;;;;;;;;;;;;;;;11.82;74.87;94746.78;4230383;28;5618;-71
2024/01/18 08:43:22;;;;;;;;;;;;;;;11.80;74.83;94752.31;4231668;28;5891;-77
2024/01/18 08:45:25;;;;;;;;;;;;;;;11.76;74.64;94750.38;4221847;28;5617;-72
2024/01/18 08:47:28;;;;;;;;;;;;;;;11.74;74.56;94753.28;4217230;28;5677;-72
2024/01/18 08:49:32;;;;;;;;;;;;;;;11.73;74.48;94753.53;4225595;28;6475;-72
2024/01/18 08:51:35;;;;;;;;;;;;;;;11.73;74.61;94759.63;4222328;28;5668;-72
2024/01/18 08:53:39;;;;;;;;;;;;;;;11.76;74.54;94766.25;4227740;28;5664;-72
2024/01/18 08:55:44;;;;;;;;;;;;;;;11.76;74.57;94763.59;4234179;28;5075;-72
2024/01/18 08:57:49;;;;;;;;;;;;;;;11.75;74.62;94776.03;4234043;28;6291;-72
2024/01/18 08:59:52;;;;;;;;;;;;;;;11.75;74.34;94764.66;4234160;28;5593;-72
2024/01/18 09:01:58;;;;;;;;;;;;;;;11.77;74.26;94789.03;4234175;28;5594;-72
2024/01/18 09:04:16;;;;;;;;;;;;;;;11.77;74.45;94789.03;4234159;28;5606;-72
2024/01/18 09:06:19;;;;;;;;;;;;;;;11.79;74.65;94790.44;4233910;28;5796;-72
2024/01/18 09:08:22;;;;;;;;;;;;;;;11.80;74.37;94793.88;4234411;28;5808;-72
2024/01/18 09:10:25;;;;;;;;;;;;;;;11.79;74.29;94793.06;4234216;28;7007;-72
2024/01/18 09:12:31;;;;;;;;;;;;;;;11.80;74.30;94788.59;4233558;28;5685;-72
2024/01/18 09:14:34;;;;;;;;;;;;;;;11.79;74.32;94781.66;4234216;28;5071;-72
2024/01/18 09:16:37;;;;;;;;;;;;;;;11.80;74.15;94793.88;4233733;28;6322;-72
2024/01/18 09:18:41;;;;;;;;;;;;;;;11.82;74.47;94797.06;4233915;28;5601;-72
2024/01/18 09:21:02;;;;;;;;;;;;;;;11.86;74.46;94803.44;4233819;28;5616;-72
2024/01/18 09:23:06;;;;;;;;;;;;;;;11.89;74.48;94813.53;4234035;28;5598;-72
2024/01/18 09:25:15;;;;;;;;;;;;;;;11.93;74.55;94812.00;4233935;28;5625;-72
2024/01/18 09:27:18;;;;;;;;;;;;;;;11.95;74.44;94805.41;4233605;28;5637;-72
2024/01/18 09:29:22;;;;;;;;;;;;;;;11.95;74.13;94810.69;4234120;28;5617;-72
2024/01/18 09:31:25;;;;;;;;;;;;;;;11.96;74.41;94822.09;4233734;28;5602;-72
2024/01/18 09:33:43;;;;;;;;;;;;;;;11.98;74.33;94817.34;4233602;28;5622;-72
2024/01/18 09:35:46;;;;;;;;;;;;;;;11.98;74.10;94812.03;4233724;28;5140;-72
2024/01/18 09:37:49;;;;;;;;;;;;;;;12.00;74.39;94811.78;4233726;28;5722;-72
2024/01/18 09:39:53;;;;;;;;;;;;;;;12.02;74.26;94822.97;4233388;28;5605;-72
2024/01/18 09:41:57;;;;;;;;;;;;;;;12.02;74.02;94821.09;4233282;28;6718;-72
2024/01/18 09:44:04;;;;;;;;;;;;;;;12.04;73.91;94826.16;4215546;28;5609;-72
2024/01/18 09:46:11;;;;;;;;;;;;;;;12.04;74.11;94829.59;4234032;28;5610;-72
2024/01/18 09:48:14;;;;;;;;;;;;;;;12.07;74.01;94825.66;4233884;28;5765;-73
2024/01/18 09:50:19;;;;;;;;;;;;;;;12.06;74.04;94838.09;4233701;28;5602;-73
2024/01/18 09:52:23;;;;;;;;;;;;;;;12.07;73.73;94831.75;4233655;28;5590;-72
2024/01/18 09:54:26;;;;;;;;;;;;;;;12.06;73.90;94838.09;4217239;28;5665;-72
2024/01/18 09:56:31;;;;;;;;;;;;;;;12.05;74.11;94848.94;4233734;28;5629;-72
2024/01/18 09:58:33;;;;;;;;;;;;;;;12.04;73.96;94844.69;4237067;28;5083;-72
2024/01/18 10:00:41;;;;;;;;;;;;;;;12.03;73.64;94854.50;4237089;28;5716;-72
2024/01/18 10:02:46;;;;;;;;;;;;;;;12.01;73.62;94851.28;4236877;28;5594;-72
2024/01/18 10:04:49;;;;;;;;;;;;;;;12.01;73.92;94853.16;4236702;28;5693;-72
2024/01/18 10:06:52;;;;;;;;;;;;;;;12.01;73.65;94855.78;4236690;28;5681;-71
2024/01/18 10:08:55;;;;;;;;;;;;;;;12.01;73.93;94864.53;4236650;28;5590;-72
2024/01/18 10:10:59;;;;;;;;;;;;;;;12.02;73.67;94870.63;4236229;28;5202;-70
2024/01/18 10:13:02;;;;;;;;;;;;;;;12.03;73.75;94865.06;4236657;28;5840;-72
2024/01/18 10:15:06;;;;;;;;;;;;;;;12.03;73.64;94877.53;4236760;28;5702;-73
2024/01/18 10:17:09;;;;;;;;;;;;;;;12.01;73.83;94875.13;4236759;28;5602;-72
2024/01/18 10:19:15;;;;;;;;;;;;;;;12.02;73.88;94882.03;4236598;28;5708;-72
2024/01/18 10:21:19;;;;;;;;;;;;;;;12.03;73.78;94877.53;4236097;28;5594;-73
2024/01/18 10:23:22;;;;;;;;;;;;;;;12.04;73.63;94873.81;4236538;28;5614;-72
2024/01/18 10:25:26;;;;;;;;;;;;;;;12.05;73.74;94881.50;4219817;28;5920;-73
2024/01/18 10:27:30;;;;;;;;;;;;;;;12.06;73.92;94877.03;4236026;28;5685;-73
2024/01/18 10:29:35;;;;;;;;;;;;;;;12.05;73.84;94878.06;4236256;28;5642;-73
2024/01/18 10:31:41;;;;;;;;;;;;;;;12.03;73.49;94883.63;4236456;28;5594;-72
2024/01/18 10:33:46;;;;;;;;;;;;;;;12.02;73.85;94886.53;4236369;28;5582;-73
2024/01/18 10:35:51;;;;;;;;;;;;;;;12.02;73.67;94891.81;4236097;28;5828;-72
2024/01/18 10:38:03;;;;;;;;;;;;;;;12.03;73.89;94888.13;4236196;28;5701;-72
2024/01/18 10:40:07;;;;;;;;;;;;;;;12.02;73.82;94887.31;4236332;28;5594;-73
2024/01/18 10:42:12;;;;;;;;;;;;;;;12.05;73.76;94888.66;4235917;28;5594;-73
2024/01/18 10:44:15;;;;;;;;;;;;;;;12.05;73.76;94889.47;4236091;28;5692;-73
2024/01/18 10:46:20;;;;;;;;;;;;;;;12.09;73.68;94889.75;4235924;28;5657;-72
2024/01/18 10:48:24;;;;;;;;;;;;;;;12.12;73.64;94881.34;4219272;28;5669;-72
2024/01/18 10:50:31;;;;;;;;;;;;;;;12.14;73.52;94882.69;4235907;28;5677;-72
2024/01/18 10:52:38;;;;;;;;;;;;;;;12.17;73.60;94887.47;4235914;28;5672;-73
2024/01/18 10:54:40;;;;;;;;;;;;;;;12.19;73.71;94884.56;4236083;28;5696;-73
2024/01/18 10:56:56;;;;;;;;;;;;;;;12.19;73.45;94876.63;4235768;28;5598;-72
2024/01/18 10:58:59;;;;;;;;;;;;;;;12.20;73.58;94884.31;4236163;28;5613;-72
2024/01/18 11:01:03;;;;;;;;;;;;;;;12.22;73.61;94886.72;4235994;28;5603;-72
2024/01/18 11:03:06;;;;;;;;;;;;;;;12.24;73.36;94885.44;4235987;28;5601;-72
2024/01/18 11:05:10;;;;;;;;;;;;;;;12.26;73.58;94881.72;4235971;28;5859;-73
2024/01/18 11:07:16;;;;;;;;;;;;;;;12.26;73.30;94876.44;4235568;28;5598;-72
2024/01/18 11:09:22;;;;;;;;;;;;;;;12.26;72.91;94879.09;4235802;28;6465;-72
2024/01/18 11:11:26;;;;;;;;;;;;;;;12.27;72.94;94880.69;4218714;28;5703;-72
2024/01/18 11:13:29;;;;;;;;;;;;;;;12.29;72.81;94870.63;4235618;28;5786;-72
2024/01/18 11:15:33;;;;;;;;;;;;;;;12.31;72.89;94882.56;4236076;28;5664;-72
2024/01/18 11:17:36;;;;;;;;;;;;;;;12.33;72.70;94877.81;4235787;28;5604;-72
2024/01/18 11:19:39;;;;;;;;;;;;;;;12.35;72.58;94881.03;4235432;28;5728;-71
2024/01/18 11:21:43;;;;;;;;;;;;;;;12.35;72.30;94889.00;4235740;28;5856;-72
2024/01/18 11:23:46;;;;;;;;;;;;;;;12.36;72.38;94887.94;4235511;28;5672;-71
2024/01/18 11:25:51;;;;;;;;;;;;;;;12.38;72.04;94877.88;4235602;28;5776;-71
2024/01/18 11:27:54;;;;;;;;;;;;;;;12.38;71.93;94885.03;4235391;28;5710;-72
2024/01/18 11:29:57;;;;;;;;;;;;;;;12.41;72.14;94881.88;4235439;28;5594;-71
2024/01/18 11:31:59;;;;;;;;;;;;;;;12.40;72.10;94889.03;4235764;28;5745;-72
2024/01/18 11:34:03;;;;;;;;;;;;;;;12.43;71.92;94893.03;4235201;28;5607;-71
2024/01/18 11:36:09;;;;;;;;;;;;;;;12.43;71.37;94888.50;4235269;28;5685;-72
2024/01/18 11:38:20;;;;;;;;;;;;;;;12.45;71.60;94901.50;4235421;28;6299;-72
2024/01/18 11:40:24;;;;;;;;;;;;;;;12.44;71.75;94902.56;4234900;28;5693;-72
2024/01/18 11:42:29;;;;;;;;;;;;;;;12.44;71.70;94908.66;4235243;28;5597;-72
2024/01/18 11:44:33;;;;;;;;;;;;;;;12.42;71.69;94910.78;4235599;28;5599;-71
2024/01/18 11:46:39;;;;;;;;;;;;;;;12.41;71.50;94914.47;4235249;28;5605;-72
2024/01/18 11:48:42;;;;;;;;;;;;;;;12.38;71.54;94916.84;4235071;28;5808;-72
2024/01/18 11:50:46;;;;;;;;;;;;;;;12.35;71.37;94927.94;4235478;28;6276;-72
2024/01/18 11:52:50;;;;;;;;;;;;;;;12.31;71.46;94929.47;4235150;28;5586;-72
2024/01/18 11:54:55;;;;;;;;;;;;;;;12.28;71.70;94932.63;4235190;28;5692;-72
2024/01/18 11:57:04;;;;;;;;;;;;;;;12.21;71.81;94935.44;4234743;28;5665;-72
2024/01/18 11:59:09;;;;;;;;;;;;;;;12.17;71.59;94931.69;4235056;28;5624;-72
2024/01/18 12:01:15;;;;;;;;;;;;;;;12.13;72.05;94935.91;4234958;28;5119;-72
2024/01/18 12:03:19;;;;;;;;;;;;;;;12.13;72.14;94936.72;4234894;28;6311;-72
2024/01/18 12:05:22;;;;;;;;;;;;;;;12.17;72.08;94937.81;4216448;28;5915;-72
2024/01/18 12:07:26;;;;;;;;;;;;;;;12.18;72.22;94938.59;4218064;28;5684;-72
2024/01/18 12:09:30;;;;;;;;;;;;;;;12.15;72.11;94937.25;4218612;28;5061;-72
2024/01/18 12:11:34;;;;;;;;;;;;;;;12.10;71.99;94937.19;4234663;28;5701;-72
2024/01/18 12:13:38;;;;;;;;;;;;;;;12.09;72.13;94927.63;4234899;28;5591;-72
2024/01/18 12:15:44;;;;;;;;;;;;;;;12.08;72.52;94944.56;4234895;28;5598;-72
2024/01/18 12:17:47;;;;;;;;;;;;;;;12.08;72.40;94933.97;4234624;28;5594;-72
2024/01/18 12:19:50;;;;;;;;;;;;;;;12.10;72.29;94941.69;4233680;28;5590;-71
2024/01/18 12:21:52;;;;;;;;;;;;;;;12.11;72.22;94933.47;4234703;28;5616;-71
2024/01/18 12:23:57;;;;;;;;;;;;;;;12.12;72.51;94929.00;4234687;27;5606;-72
2024/01/18 12:26:00;;;;;;;;;;;;;;;12.12;72.42;94932.47;4234853;28;5609;-72
2024/01/18 12:28:05;;;;;;;;;;;;;;;12.12;72.40;94935.09;4234438;28;5590;-72
2024/01/18 12:30:10;;;;;;;;;;;;;;;12.13;72.14;94933.25;4234609;28;6279;-72
2024/01/18 12:32:18;;;;;;;;;;;;;;;12.12;72.27;94935.09;4234826;28;5586;-73
2024/01/18 12:34:21;;;;;;;;;;;;;;;12.11;72.27;94933.47;4234411;28;5602;-72
2024/01/18 12:36:24;;;;;;;;;;;;;;;12.13;72.40;94925.31;4217500;28;6366;-71
2024/01/18 12:38:27;;;;;;;;;;;;;;;12.10;72.20;94931.09;4234496;28;5685;-71
2024/01/18 12:40:31;;;;;;;;;;;;;;;12.10;72.61;94931.88;4234226;28;5657;-72
2024/01/18 12:42:33;;;;;;;;;;;;;;;12.10;72.31;94936.38;4215789;28;5616;-72
2024/01/18 12:44:37;;;;;;;;;;;;;;;12.09;72.39;94945.38;4234582;28;5657;-72
2024/01/18 12:46:41;;;;;;;;;;;;;;;12.10;72.54;94942.47;4234720;28;5613;-73
2024/01/18 12:48:45;;;;;;;;;;;;;;;12.09;72.33;94966.56;4234361;28;5067;-71
2024/01/18 12:50:51;;;;;;;;;;;;;;;12.08;72.66;94968.41;4234266;28;7699;-72
2024/01/18 12:52:54;;;;;;;;;;;;;;;12.05;72.45;94968.91;4234171;28;5682;-72
2024/01/18 12:54:58;;;;;;;;;;;;;;;12.05;72.85;94970.75;4234335;28;5582;-72
2024/01/18 12:57:04;;;;;;;;;;;;;;;12.05;72.87;94971.56;4233872;28;5662;-72
2024/01/18 12:59:09;;;;;;;;;;;;;;;12.06;72.88;94977.66;4234101;28;5590;-72
2024/01/18 13:01:27;;;;;;;;;;;;;;;12.05;72.79;94968.13;4234233;28;5602;-72
2024/01/18 13:03:30;;;;;;;;;;;;;;;12.08;72.68;94971.06;4234364;28;5610;-72
2024/01/18 13:05:42;;;;;;;;;;;;;;;12.09;72.54;94977.97;4234273;28;5614;-72
2024/01/18 13:07:45;;;;;;;;;;;;;;;12.12;72.35;94998.69;4234178;28;5590;-72
2024/01/18 13:09:48;;;;;;;;;;;;;;;12.10;72.35;95000.75;4234031;28;6829;-72
2024/01/18 13:11:52;;;;;;;;;;;;;;;12.07;72.74;95001.25;4233737;28;5703;-72
2024/01/18 13:13:59;;;;;;;;;;;;;;;12.07;72.69;94998.59;4234011;28;5702;-72
2024/01/18 13:16:03;;;;;;;;;;;;;;;12.07;72.67;95006.53;4234239;28;5722;-72
2024/01/18 13:18:09;;;;;;;;;;;;;;;12.07;72.94;94995.94;4233965;28;5704;-72
2024/01/18 13:20:14;;;;;;;;;;;;;;;12.08;72.73;95000.19;4233827;28;6283;-72
2024/01/18 13:22:18;;;;;;;;;;;;;;;12.08;72.73;94997.56;4234246;28;5594;-72
2024/01/18 13:24:21;;;;;;;;;;;;;;;12.09;72.77;94999.16;4215749;28;5724;-72
2024/01/18 13:26:24;;;;;;;;;;;;;;;12.11;72.80;95005.00;4217289;28;5809;-71
2024/01/18 13:28:27;;;;;;;;;;;;;;;12.12;72.98;95009.28;4233923;28;5631;-72
2024/01/18 13:30:31;;;;;;;;;;;;;;;12.12;72.80;95019.06;4234170;28;5707;-72
2024/01/18 13:32:34;;;;;;;;;;;;;;;12.11;72.87;95012.94;4235889;28;5614;-72
2024/01/18 13:34:38;;;;;;;;;;;;;;;12.12;73.07;95019.06;4237136;28;5610;-73
2024/01/18 13:36:42;;;;;;;;;;;;;;;12.12;73.02;95025.16;4237111;28;5618;-72
2024/01/18 13:38:45;;;;;;;;;;;;;;;12.12;72.91;95022.53;4237028;28;5622;-72
2024/01/18 13:40:49;;;;;;;;;;;;;;;12.12;73.04;95029.66;4236863;28;5688;-72
2024/01/18 13:42:51;;;;;;;;;;;;;;;12.10;72.65;95023.78;4236694;28;5602;-72
2024/01/18 13:44:54;;;;;;;;;;;;;;;12.08;72.95;95029.34;4236837;28;5091;-72
2024/01/18 13:46:57;;;;;;;;;;;;;;;12.09;73.04;95038.09;4236974;28;5828;-72
2024/01/18 13:49:00;;;;;;;;;;;;;;;12.12;72.98;95049.00;4218985;28;5620;-72
2024/01/18 13:51:05;;;;;;;;;;;;;;;12.15;73.02;95047.72;4237152;28;5697;-72
2024/01/18 13:53:09;;;;;;;;;;;;;;;12.15;72.83;95051.16;4236787;28;5602;-72
2024/01/18 13:55:14;;;;;;;;;;;;;;;12.16;72.72;95051.97;4236797;28;5685;-72
2024/01/18 13:57:18;;;;;;;;;;;;;;;12.14;72.66;95065.44;4236725;28;5579;-72
2024/01/18 13:59:21;;;;;;;;;;;;;;;12.15;72.87;95066.25;4236746;28;5606;-72
2024/01/18 14:01:24;;;;;;;;;;;;;;;12.14;72.26;95070.75;4219936;28;5674;-72
2024/01/18 14:03:27;;;;;;;;;;;;;;;12.14;72.64;95065.44;4228909;28;5622;-72
2024/01/18 14:05:31;;;;;;;;;;;;;;;12.18;72.07;95063.09;4236553;28;5609;-72
2024/01/18 14:07:33;;;;;;;;;;;;;;;12.19;72.09;95081.41;4236672;28;5606;-72
2024/01/18 14:09:37;;;;;;;;;;;;;;;12.18;72.13;95079.81;4236177;28;5598;-73
2024/01/18 14:11:42;;;;;;;;;;;;;;;12.17;72.06;95078.19;4236372;28;5601;-72
2024/01/18 14:13:45;;;;;;;;;;;;;;;12.13;71.77;95082.41;4236663;28;5601;-72
2024/01/18 14:15:51;;;;;;;;;;;;;;;12.10;71.87;95090.81;4236368;28;5590;-73
2024/01/18 14:17:55;;;;;;;;;;;;;;;12.07;71.83;95085.19;4236343;28;5704;-72
2024/01/18 14:19:58;;;;;;;;;;;;;;;12.09;72.24;95099.81;4236218;28;5594;-72
2024/01/18 14:22:01;;;;;;;;;;;;;;;12.08;71.91;95106.16;4218269;28;5715;-71
2024/01/18 14:24:05;;;;;;;;;;;;;;;12.10;71.75;95105.91;4236744;28;5718;-72
2024/01/18 14:26:08;;;;;;;;;;;;;;;12.08;71.98;95114.09;4236441;27;5590;-71
2024/01/18 14:28:14;;;;;;;;;;;;;;;12.09;71.95;95112.25;4236381;28;5807;-72
2024/01/18 14:30:17;;;;;;;;;;;;;;;12.10;72.11;95127.88;4236561;28;5590;-72
2024/01/18 14:32:19;;;;;;;;;;;;;;;12.08;71.94;95129.19;4236042;28;5606;-71
2024/01/18 14:34:22;;;;;;;;;;;;;;;12.07;71.97;95128.38;4236385;28;5586;-72
2024/01/18 14:36:25;;;;;;;;;;;;;;;12.08;71.82;95119.38;4227979;28;5586;-72
2024/01/18 14:38:28;;;;;;;;;;;;;;;12.12;72.04;95131.13;4236102;28;5692;-72
2024/01/18 14:40:31;;;;;;;;;;;;;;;12.13;71.83;95139.88;4236059;28;5893;-72
2024/01/18 14:42:34;;;;;;;;;;;;;;;12.15;72.11;95146.53;4235307;28;5594;-72
2024/01/18 14:44:39;;;;;;;;;;;;;;;12.17;71.82;95148.94;4236304;28;6384;-72
2024/01/18 14:46:42;;;;;;;;;;;;;;;12.19;71.86;95150.28;4236296;28;5687;-72
2024/01/18 14:48:46;;;;;;;;;;;;;;;12.21;71.82;95161.44;4236270;28;5605;-73
2024/01/18 14:50:49;;;;;;;;;;;;;;;12.24;71.86;95162.81;4236039;28;6425;-72
2024/01/18 14:52:53;;;;;;;;;;;;;;;12.22;71.74;95175.47;4235932;28;5607;-72
2024/01/18 14:54:56;;;;;;;;;;;;;;;12.19;71.71;95174.13;4236000;28;5594;-73
2024/01/18 14:57:00;;;;;;;;;;;;;;;12.18;71.74;95182.31;4235694;28;5682;-72
2024/01/18 14:59:03;;;;;;;;;;;;;;;12.12;71.57;95173.50;4235758;28;5851;-72
2024/01/18 15:01:08;;;;;;;;;;;;;;;12.10;71.62;95183.50;4236068;28;5613;-73
2024/01/18 15:03:14;;;;;;;;;;;;;;;12.11;71.54;95185.13;4235716;28;6737;-72
2024/01/18 15:05:16;;;;;;;;;;;;;;;12.13;71.75;95200.78;4235952;28;5613;-73
2024/01/18 15:07:19;;;;;;;;;;;;;;;12.14;71.96;95194.44;4234979;28;5597;-73
2024/01/18 15:09:21;;;;;;;;;;;;;;;12.16;72.00;95198.47;4234780;28;5796;-72
2024/01/18 15:11:24;;;;;;;;;;;;;;;12.16;71.63;95205.59;4202029;28;5650;-72
2024/01/18 15:13:27;;;;;;;;;;;;;;;12.17;71.74;95205.34;4227776;28;6686;-72
2024/01/18 15:15:32;;;;;;;;;;;;;;;12.18;71.61;95208.81;4235281;28;5709;-72
2024/01/18 15:17:38;;;;;;;;;;;;;;;12.16;71.59;95211.69;4235096;28;5712;-73
2024/01/18 15:19:45;;;;;;;;;;;;;;;12.16;71.90;95217.00;4234075;28;6198;-73
2024/01/18 15:21:49;;;;;;;;;;;;;;;12.13;71.51;95214.03;4235491;28;5708;-73
2024/01/18 15:23:52;;;;;;;;;;;;;;;12.08;71.68;95214.75;4234836;28;7304;-73
2024/01/18 15:25:56;;;;;;;;;;;;;;;12.08;71.77;95214.75;4231153;27;5685;-72
2024/01/18 15:27:59;;;;;;;;;;;;;;;12.06;72.03;95227.44;4236285;27;5613;-72
2024/01/18 15:30:03;;;;;;;;;;;;;;;12.08;71.80;95227.19;4237427;27;5697;-72
2024/01/18 15:32:07;;;;;;;;;;;;;;;12.09;71.81;95232.25;4235126;27;5701;-72
2024/01/18 15:34:11;;;;;;;;;;;;;;;12.08;72.06;95235.13;4234285;28;5693;-72
2024/01/18 15:36:14;;;;;;;;;;;;;;;12.09;71.79;95237.53;4229941;28;5701;-72
2024/01/18 15:38:18;;;;;;;;;;;;;;;12.08;71.80;95241.22;4233144;28;5684;-73
2024/01/18 15:40:21;;;;;;;;;;;;;;;12.07;72.05;95244.94;4234037;28;5590;-72
2024/01/18 15:42:23;;;;;;;;;;;;;;;12.08;71.88;95251.03;4233407;28;5722;-73
2024/01/18 15:44:30;;;;;;;;;;;;;;;12.08;72.12;95256.31;4234543;28;5621;-73
2024/01/18 15:46:32;;;;;;;;;;;;;;;12.09;71.86;95263.22;4228119;27;5601;-73
2024/01/18 15:48:36;;;;;;;;;;;;;;;12.08;71.93;95267.72;4235488;27;5669;-73
2024/01/18 15:50:40;;;;;;;;;;;;;;;12.08;71.88;95266.91;4233856;28;5171;-73
2024/01/18 15:52:43;;;;;;;;;;;;;;;12.09;72.26;95271.97;4234280;28;5696;-72
2024/01/18 15:54:47;;;;;;;;;;;;;;;12.10;72.06;95275.41;4231580;27;5617;-73
2024/01/18 15:56:50;;;;;;;;;;;;;;;12.11;72.17;95282.31;4234441;27;5595;-73
2024/01/18 15:58:53;;;;;;;;;;;;;;;12.13;72.30;95280.25;4233801;28;5681;-73
2024/01/18 16:00:56;;;;;;;;;;;;;;;12.11;72.12;95288.44;4228229;28;5669;-72
2024/01/18 16:03:00;;;;;;;;;;;;;;;12.10;72.16;95297.41;4228444;28;5602;-73
2024/01/18 16:05:03;;;;;;;;;;;;;;;12.10;72.13;95301.91;4233611;28;5615;-73
2024/01/18 16:07:11;;;;;;;;;;;;;;;12.07;72.07;95300.56;4233707;28;5802;-72
2024/01/18 16:09:14;;;;;;;;;;;;;;;12.04;71.84;95300.22;4231544;27;6492;-73
2024/01/18 16:11:17;;;;;;;;;;;;;;;12.02;71.85;95302.31;4234104;27;5581;-72
2024/01/18 16:13:19;;;;;;;;;;;;;;;11.94;71.54;95304.31;4233179;28;5895;-73
2024/01/18 16:15:22;;;;;;;;;;;;;;;11.92;71.63;95310.88;4231920;28;5804;-72